Millhaven, Canada
Current Conditions -  °F | °C
As of 11:00 PM on Saturday 22 Nov 2014 (Local Time) from CYGK Reporting Station
Light Rain Light Rain  
Wind Chill: 37°   Ceiling: 600
Heat Index: 43°   Visibility: 4mi
Dew Point: 43°   Wind: 9mph
Humidity: 100%   Direction: 210°SSW
Pressure: 29.94"   Gusts: 18mph
Location:  44.2°N, 76.75°W
Report Text: CYGK 230400Z 21008G16KT 4SM -RA BR BKN006 OVC012 06/06 A2994 RMK SF5NS3 LAST STFD OBS/NEXT 231100 UTC SLP141
Loading
Personal Weather Stations






























Interactive Weather Map New forecast layout! Learn more

10-Day Weather Forecast

Advertisements
Track Severe Weather on mobile